Time;durP1;ratioP1;P1;durP2;ratioP2;P2;SDS_P1;SDS_P2;PMS_P1;PMS_P2;Temp;Humidity;BMP_temperature;BMP_pressure;BME280_temperature;BME280_humidity;BME280_pressure;Samples;Min_cycle;Max_cycle;Signal;HPM_P1;HPM_P2
2022/10/27 00:00:49;;;;;;;27.75;14.52;;;11.40;99.90;;;10.24;100.00;101726.22;5018116;28;20066;-80
2022/10/27 00:03:16;;;;;;;18.40;10.88;;;11.40;99.90;;;10.23;100.00;101744.69;5014271;28;20034;-80
2022/10/27 00:05:49;;;;;;;22.85;11.35;;;11.40;99.90;;;10.17;100.00;101739.59;4999584;28;20113;-81
2022/10/27 00:08:21;;;;;;;18.27;9.55;;;11.30;99.90;;;10.10;100.00;101741.53;5012685;28;20026;-81
2022/10/27 00:10:58;;;;;;;48.78;19.35;;;11.30;99.90;;;9.97;100.00;101738.41;5011444;28;20037;-80
2022/10/27 00:13:25;;;;;;;22.35;12.07;;;11.10;99.90;;;9.88;100.00;101736.03;4997265;28;20513;-80
2022/10/27 00:15:58;;;;;;;21.00;12.80;;;11.10;99.90;;;9.90;100.00;101738.63;4998730;28;20125;-81
2022/10/27 00:18:25;;;;;;;38.78;14.02;;;11.10;99.90;;;9.93;100.00;101744.63;5013828;28;20037;-80
2022/10/27 00:21:16;;;;;;;31.58;16.17;;;11.10;99.90;;;10.06;100.00;101747.78;5011422;28;20034;-81
2022/10/27 00:23:42;;;;;;;32.58;16.15;;;11.20;99.90;;;10.16;100.00;101751.03;5013021;28;20092;-81
2022/10/27 00:26:12;;;;;;;28.42;16.70;;;11.30;99.90;;;10.26;100.00;101757.78;5016488;28;20537;-82
2022/10/27 00:28:38;;;;;;;28.27;15.10;;;11.40;99.90;;;10.34;100.00;101758.44;5012032;28;20066;-80
2022/10/27 00:31:13;;;;;;;29.33;16.35;;;11.50;99.90;;;10.43;100.00;101757.28;5012576;28;20061;-81
2022/10/27 00:33:40;;;;;;;28.25;16.65;;;11.60;99.90;;;10.53;100.00;101755.28;5010559;28;20023;-81
2022/10/27 00:36:28;;;;;;;25.48;14.82;;;11.70;99.90;;;10.63;100.00;101762.84;4997932;28;20029;-81
2022/10/27 00:38:58;;;;;;;25.17;14.75;;;11.80;99.90;;;10.72;100.00;101766.97;5007549;28;20523;-82
2022/10/27 00:41:39;;;;;;;29.42;15.57;;;11.90;99.90;;;10.80;100.00;101764.13;5013038;28;20042;-81
2022/10/27 00:44:32;;;;;;;28.38;14.95;;;11.90;99.90;;;10.85;100.00;101767.47;5013099;28;20030;-80
2022/10/27 00:47:10;;;;;;;30.42;15.45;;;12.00;99.90;;;10.88;100.00;101767.34;5010971;28;20026;-84
2022/10/27 00:50:19;;;;;;;29.73;15.80;;;12.00;99.90;;;10.91;100.00;101761.09;5016527;28;20034;-81
2022/10/27 00:52:52;;;;;;;31.23;15.20;;;12.00;99.90;;;10.93;100.00;101759.28;4997048;28;20040;-81
2022/10/27 00:55:29;;;;;;;28.02;14.32;;;12.10;99.90;;;10.97;100.00;101760.94;5012764;28;20113;-81
2022/10/27 00:57:58;;;;;;;27.52;14.30;;;12.10;99.90;;;11.00;100.00;101761.69;5004595;28;20121;-80
2022/10/27 01:00:29;;;;;;;29.83;14.23;;;12.10;99.90;;;11.04;100.00;101770.38;4996196;28;20025;-81
2022/10/27 01:02:56;;;;;;;26.83;13.63;;;12.20;99.90;;;11.05;100.00;101775.56;5012704;28;20026;-81
2022/10/27 01:05:25;;;;;;;26.77;13.93;;;12.20;99.90;;;11.05;100.00;101782.63;5004502;28;20034;-81
2022/10/27 01:07:57;;;;;;;23.50;13.25;;;12.20;99.90;;;11.01;100.00;101784.50;5012781;28;20030;-81
2022/10/27 01:10:24;;;;;;;27.15;13.43;;;12.10;99.90;;;10.95;100.00;101773.28;5011827;28;20113;-81
2022/10/27 01:12:50;;;;;;;26.77;12.60;;;12.10;99.90;;;10.90;100.00;101780.47;5011986;28;20030;-80
2022/10/27 01:15:16;;;;;;;34.65;13.55;;;12.00;99.90;;;10.84;100.00;101781.53;5013892;28;20049;-81
2022/10/27 01:18:21;;;;;;;28.05;13.82;;;12.00;99.90;;;10.78;100.00;101785.22;5012143;28;20022;-79
2022/10/27 01:21:26;;;;;;;25.42;13.20;;;12.00;99.90;;;10.75;100.00;101781.81;5024531;28;20089;-81
2022/10/27 01:24:13;;;;;;;24.00;12.95;;;11.90;99.90;;;10.71;100.00;101790.72;5028922;23;20513;-80
2022/10/27 01:26:57;;;;;;;31.92;12.80;;;11.80;99.90;;;10.65;100.00;101791.78;5018603;28;20030;-81
2022/10/27 01:29:48;;;;;;;27.15;13.75;;;11.80;99.90;;;10.60;100.00;101780.50;5023076;28;20028;-81
2022/10/27 01:32:28;;;;;;;27.90;14.02;;;11.70;99.90;;;10.54;100.00;101788.56;5020703;28;20041;-80
2022/10/27 01:35:29;;;;;;;27.45;12.23;;;11.70;99.90;;;10.44;100.00;101796.75;5007336;28;20026;-80
2022/10/27 01:38:26;;;;;;;36.50;12.68;;;11.60;99.90;;;10.38;100.00;101793.44;4986010;28;20055;-81
2022/10/27 01:41:15;;;;;;;52.10;17.25;;;11.50;99.90;;;10.27;100.00;101786.66;5008518;28;20499;-81
2022/10/27 01:43:42;;;;;;;26.70;14.13;;;11.40;99.90;;;10.20;100.00;101785.13;5017830;28;20129;-81
2022/10/27 01:46:10;;;;;;;29.20;13.57;;;11.40;99.90;;;10.18;100.00;101788.72;4988651;28;20056;-80
2022/10/27 01:48:37;;;;;;;28.70;15.05;;;11.40;99.90;;;10.21;100.00;101788.63;5002256;28;20048;-80
2022/10/27 01:51:09;;;;;;;31.88;16.25;;;11.40;99.90;;;10.27;100.00;101785.81;4984880;28;20044;-80
2022/10/27 01:53:41;;;;;;;36.83;16.40;;;11.50;99.90;;;10.31;100.00;101786.63;4986362;28;20053;-80
2022/10/27 01:56:34;;;;;;;29.52;15.50;;;11.50;99.90;;;10.37;100.00;101791.72;5005259;28;20090;-80
2022/10/27 01:59:24;;;;;;;39.47;16.45;;;11.50;99.90;;;10.44;100.00;101798.53;5009511;28;20079;-82
2022/10/27 02:02:08;;;;;;;29.48;14.95;;;11.60;99.90;;;10.46;100.00;101794.94;5001628;28;20133;-81
2022/10/27 02:04:46;;;;;;;33.80;15.95;;;11.60;99.90;;;10.48;100.00;101794.06;5018461;28;20041;-80
2022/10/27 02:07:39;;;;;;;33.00;15.63;;;11.60;99.90;;;10.51;100.00;101799.22;4985488;28;20037;-82
2022/10/27 02:10:36;;;;;;;35.92;17.70;;;11.60;99.90;;;10.52;100.00;101795.66;5016361;28;20038;-80
2022/10/27 02:13:03;;;;;;;33.63;16.13;;;11.70;99.90;;;10.54;100.00;101797.38;5000542;28;20033;-81
2022/10/27 02:15:32;;;;;;;29.33;16.38;;;11.80;99.90;;;10.56;100.00;101798.19;4998489;28;20037;-81
2022/10/27 02:18:26;;;;;;;41.72;18.02;;;11.70;99.90;;;10.51;100.00;101802.69;4987049;28;20105;-80
2022/10/27 02:21:00;;;;;;;40.08;17.83;;;11.70;99.90;;;10.42;100.00;101800.34;5013448;28;20049;-80
2022/10/27 02:23:26;;;;;;;47.88;18.45;;;11.60;99.90;;;10.33;100.00;101796.22;4999975;28;20092;-80
2022/10/27 02:25:56;;;;;;;40.85;19.58;;;11.60;99.90;;;10.33;100.00;101795.34;4986523;28;20025;-81
2022/10/27 02:28:31;;;;;;;39.15;19.73;;;11.60;99.90;;;10.36;100.00;101792.63;5002512;28;20033;-81
2022/10/27 02:30:59;;;;;;;41.42;19.00;;;11.50;99.90;;;10.30;100.00;101801.53;5004941;28;20087;-81
2022/10/27 02:33:25;;;;;;;35.97;18.75;;;11.50;99.90;;;10.26;100.00;101802.53;5006978;28;20029;-81
2022/10/27 02:35:56;;;;;;;44.53;19.00;;;11.50;99.90;;;10.21;100.00;101804.41;4986621;28;20037;-81
2022/10/27 02:38:23;;;;;;;41.40;19.88;;;;;;;10.21;100.00;101801.78;5020520;22;20136;-86
2022/10/27 02:40:49;;;;;;;41.50;20.60;;;11.40;99.90;;;10.17;100.00;101802.75;5033948;28;20032;-87
2022/10/27 02:43:14;;;;;;;22.83;14.30;;;11.40;99.90;;;10.21;100.00;101809.66;5032811;28;20474;-85
2022/10/27 02:45:52;;;;;;;42.17;20.45;;;;;;;10.23;100.00;101807.88;5036351;28;20040;-86
2022/10/27 02:48:18;;;;;;;35.63;17.80;;;11.40;99.90;;;10.20;100.00;101811.44;5038329;28;20482;-86
2022/10/27 02:50:43;;;;;;;38.00;17.13;;;11.40;99.90;;;10.21;100.00;101815.78;5035936;28;20026;-86
2022/10/27 02:53:11;;;;;;;53.80;20.45;;;11.40;99.90;;;10.19;100.00;101811.47;5032564;28;20030;-86
2022/10/27 02:55:40;;;;;;;50.53;21.92;;;11.40;99.90;;;10.17;100.00;101816.81;5048634;28;20029;-86
2022/10/27 02:58:05;;;;;;;54.75;22.60;;;11.30;99.90;;;10.13;100.00;101824.81;5044292;28;20452;-86
2022/10/27 03:00:31;;;;;;;46.10;21.92;;;11.30;99.90;;;10.12;100.00;101823.09;5031207;28;20065;-85
2022/10/27 03:03:01;;;;;;;31.23;16.05;;;11.30;99.90;;;10.13;100.00;101825.69;5026596;28;20033;-86
2022/10/27 03:05:35;;;;;;;37.33;17.15;;;11.30;99.90;;;10.11;100.00;101829.25;5047019;28;20021;-85
2022/10/27 03:08:03;;;;;;;48.63;20.98;;;11.30;99.90;;;10.10;100.00;101835.44;5032305;28;20031;-85
2022/10/27 03:10:29;;;;;;;54.13;24.42;;;11.30;99.90;;;10.01;100.00;101832.13;5011946;28;20049;-86
2022/10/27 03:13:02;;;;;;;63.97;25.20;;;11.20;99.90;;;9.99;100.00;101833.94;5041631;28;20112;-85
2022/10/27 03:15:30;;;;;;;49.80;21.77;;;11.20;99.90;;;9.97;100.00;101843.63;5018977;28;20052;-86
2022/10/27 03:18:01;;;;;;;37.05;17.48;;;11.20;99.90;;;9.96;100.00;101843.69;5051847;28;20025;-86
2022/10/27 03:20:33;;;;;;;35.13;19.35;;;11.20;99.90;;;9.94;100.00;101851.63;5033422;28;20119;-86
2022/10/27 03:22:58;;;;;;;75.10;27.77;;;11.10;99.90;;;9.89;100.00;101857.91;5056629;28;20030;-86
2022/10/27 03:25:24;;;;;;;55.40;24.38;;;11.10;99.90;;;9.89;100.00;101855.25;5018151;28;20108;-86
2022/10/27 03:27:57;;;;;;;48.03;23.20;;;11.10;99.90;;;9.91;100.00;101866.63;5020947;28;20063;-85
2022/10/27 03:30:23;;;;;;;49.63;24.02;;;11.10;99.90;;;9.91;100.00;101859.56;5058382;28;20065;-86
2022/10/27 03:32:51;;;;;;;86.22;30.90;;;11.10;99.90;;;9.90;100.00;101863.13;5045182;28;20074;-86
2022/10/27 03:35:27;;;;;;;60.67;25.95;;;11.10;99.90;;;9.91;100.00;101867.47;5031231;28;20022;-86
2022/10/27 03:38:06;;;;;;;84.57;29.70;;;11.10;99.90;;;9.88;100.00;101861.44;5028709;28;20109;-86
2022/10/27 03:40:32;;;;;;;58.63;25.25;;;11.10;99.90;;;9.88;100.00;101875.47;5028805;28;20477;-85
2022/10/27 03:42:58;;;;;;;62.92;26.08;;;11.10;99.90;;;9.88;100.00;101880.72;5040438;28;20117;-86
2022/10/27 03:45:25;;;;;;;40.75;21.52;;;11.10;99.90;;;9.86;100.00;101872.84;5029792;28;20087;-86
2022/10/27 03:48:12;;;;;;;60.20;26.73;;;11.10;99.90;;;9.85;100.00;101880.81;5034415;28;20040;-85
2022/10/27 03:50:41;;;;;;;17.73;10.05;;;11.00;99.90;;;9.83;100.00;101879.97;5030483;28;20429;-86
2022/10/27 03:53:08;;;;;;;51.95;22.17;;;11.00;99.90;;;9.79;100.00;101878.31;5030815;28;20052;-85
2022/10/27 03:55:42;;;;;;;65.32;24.67;;;11.00;99.90;;;9.77;100.00;101880.13;5049508;28;20024;-86
2022/10/27 03:58:22;;;;;;;71.53;22.42;;;11.00;99.90;;;9.70;100.00;101878.53;5039612;28;20517;-87
2022/10/27 04:00:48;;;;;;;27.52;17.17;;;10.90;99.90;;;9.72;100.00;101880.25;5035769;28;20049;-86
2022/10/27 04:03:14;;;;;;;106.50;30.48;;;10.90;99.90;;;9.67;100.00;101879.47;5033137;28;20496;-86
2022/10/27 04:05:40;;;;;;;80.78;28.05;;;10.90;99.90;;;9.64;100.00;101890.09;5032140;28;20111;-86
2022/10/27 04:08:05;;;;;;;41.67;20.15;;;10.90;99.90;;;9.61;100.00;101885.78;5022009;28;20037;-86
2022/10/27 04:10:34;;;;;;;92.93;25.95;;;10.80;99.90;;;9.57;100.00;101892.00;5046604;28;20160;-86
2022/10/27 04:13:03;;;;;;;273.65;39.95;;;10.80;99.90;;;9.56;100.00;101886.75;5036390;28;20067;-86
2022/10/27 04:15:31;;;;;;;559.78;47.95;;;10.80;99.90;;;9.50;100.00;101885.13;5042008;28;20038;-86
2022/10/27 04:18:22;;;;;;;117.50;30.00;;;10.70;99.90;;;9.44;100.00;101893.19;5021843;28;20033;-85
2022/10/27 04:20:50;;;;;;;132.13;37.00;;;10.60;99.90;;;9.32;100.00;101888.22;5020918;28;20030;-87
2022/10/27 04:23:16;;;;;;;184.70;41.38;;;10.60;99.90;;;9.24;100.00;101880.47;5045840;28;20030;-86
2022/10/27 04:25:52;;;;;;;161.90;33.00;;;10.60;99.90;;;9.24;100.00;101881.38;5042994;28;20028;-86
2022/10/27 04:28:21;;;;;;;199.38;40.65;;;10.60;99.90;;;9.26;100.00;101880.44;5044932;28;20161;-86
2022/10/27 04:30:55;;;;;;;153.32;36.08;;;;;;;9.29;100.00;101888.25;5033571;28;20120;-87
2022/10/27 04:33:23;;;;;;;252.00;48.58;;;;;;;9.26;100.00;101881.31;5034686;28;20035;-87
2022/10/27 04:35:49;;;;;;;322.05;46.47;;;10.50;99.90;;;9.17;100.00;101887.63;5040301;28;20041;-87
2022/10/27 04:38:24;;;;;;;344.92;47.20;;;10.50;99.90;;;9.20;100.00;101894.59;5033637;28;20033;-86
2022/10/27 04:40:50;;;;;;;650.22;56.92;;;10.50;99.90;;;9.19;100.00;101898.13;5035343;28;20033;-87
2022/10/27 04:43:16;;;;;;;579.38;52.40;;;;;;;9.10;100.00;101893.94;5038176;28;20421;-87
2022/10/27 04:45:51;;;;;;;418.85;45.30;;;;;;;9.08;100.00;101903.63;5037671;28;20163;-87
2022/10/27 04:48:17;;;;;;;944.40;74.50;;;10.40;99.90;;;9.06;100.00;101900.16;5029059;28;20034;-86
2022/10/27 04:50:43;;;;;;;993.90;68.80;;;;;;;9.04;100.00;101901.94;5033218;28;20025;-86
2022/10/27 04:53:22;;;;;;;;;;;;;;;;;;;;;
2022/10/27 04:55:57;;;;;;;781.90;69.82;;;;;;;9.00;100.00;101898.50;5048222;28;20024;-86
2022/10/27 04:58:23;;;;;;;34.83;17.97;;;10.20;99.90;;;8.97;100.00;101905.63;5040574;28;21016;-86
2022/10/27 05:00:52;;;;;;;22.83;13.85;;;10.20;99.90;;;8.92;100.00;101905.72;5014369;28;20028;-87
2022/10/27 05:03:18;;;;;;;23.73;12.68;;;10.10;99.90;;;8.83;100.00;101901.53;5015340;28;20124;-86
2022/10/27 05:05:50;;;;;;;209.23;22.13;;;;;;;8.76;100.00;101899.88;5038228;28;20029;-87
2022/10/27 05:08:16;;;;;;;75.40;20.08;;;;;;;8.71;100.00;101901.75;5037309;28;20509;-86
2022/10/27 05:10:43;;;;;;;32.67;16.48;;;10.00;99.90;;;8.68;100.00;101900.94;5041356;28;20033;-87
2022/10/27 05:13:16;;;;;;;956.80;54.10;;;9.90;99.90;;;8.57;100.00;101909.91;5032792;28;20033;-86
2022/10/27 05:15:42;;;;;;;1009.13;57.65;;;9.80;99.90;;;8.50;100.00;101915.31;5036374;28;20017;-85
2022/10/27 05:18:10;;;;;;;382.98;32.17;;;9.80;99.90;;;8.34;100.00;101917.31;5043788;28;20492;-86
2022/10/27 05:20:36;;;;;;;463.88;45.40;;;9.60;99.90;;;8.27;100.00;101921.81;5035597;28;20573;-86
2022/10/27 05:23:13;;;;;;;384.90;45.53;;;9.60;99.90;;;8.20;100.00;101922.81;5022687;28;20029;-86
2022/10/27 05:25:41;;;;;;;417.80;94.40;;;9.50;99.90;;;8.11;100.00;101921.22;5012856;28;20057;-86
2022/10/27 05:28:12;;;;;;;302.08;71.60;;;9.50;99.90;;;8.06;100.00;101916.94;5038577;28;20029;-86
2022/10/27 05:30:38;;;;;;;519.85;95.82;;;9.50;99.90;;;8.08;100.00;101934.38;5031757;28;20104;-86
2022/10/27 05:33:04;;;;;;;559.28;130.60;;;9.50;99.90;;;8.09;100.00;101937.88;5031732;28;20030;-86
2022/10/27 05:35:32;;;;;;;608.90;120.53;;;9.50;99.90;;;8.09;100.00;101927.38;5022494;28;20432;-87
2022/10/27 05:38:06;;;;;;;674.60;99.60;;;9.50;99.90;;;8.11;100.00;101931.69;5036370;28;20103;-87
2022/10/27 05:40:35;;;;;;;565.08;87.45;;;;;;;8.18;100.00;101929.84;5011173;28;20029;-87
2022/10/27 05:43:13;;;;;;;611.88;103.85;;;9.50;99.90;;;8.16;100.00;101934.25;5022022;28;20033;-86
2022/10/27 05:45:38;;;;;;;545.17;93.55;;;9.60;99.90;;;8.20;100.00;101935.91;5034119;28;20439;-87
2022/10/27 05:48:11;;;;;;;334.05;62.30;;;9.60;99.90;;;8.18;100.00;101930.69;5027037;28;20030;-87
2022/10/27 05:50:37;;;;;;;418.10;49.83;;;;;;;8.24;100.00;101939.38;5026721;28;20028;-87
2022/10/27 05:53:04;;;;;;;444.83;62.17;;;;;;;8.25;100.00;101944.59;5034128;28;20056;-87
2022/10/27 05:55:32;;;;;;;359.55;48.40;;;9.50;99.90;;;8.24;100.00;101942.00;5035224;28;20060;-87
2022/10/27 05:58:05;;;;;;;211.25;37.40;;;9.50;99.90;;;8.14;100.00;101943.88;5041496;28;20053;-86
2022/10/27 06:00:37;;;;;;;90.43;25.45;;;9.40;99.90;;;8.01;100.00;101937.97;5042432;28;20041;-87
2022/10/27 06:03:14;;;;;;;99.43;25.95;;;9.30;99.90;;;7.98;100.00;101944.16;5029054;28;20033;-86
2022/10/27 06:05:50;;;;;;;78.57;26.88;;;9.30;99.90;;;7.97;100.00;101954.69;5041904;28;20520;-86
2022/10/27 06:08:17;;;;;;;181.20;35.72;;;9.30;99.90;;;7.92;100.00;101946.88;5041116;28;20032;-87
2022/10/27 06:10:44;;;;;;;182.45;26.55;;;9.30;99.90;;;8.01;100.00;101952.00;5042416;28;20061;-87
2022/10/27 06:13:17;;;;;;;466.23;43.78;;;;;;;8.13;100.00;101953.53;5028064;28;20461;-87
2022/10/27 06:15:43;;;;;;;189.95;26.52;;;9.40;99.90;;;8.26;100.00;101959.44;5058319;28;20040;-87
2022/10/27 06:18:09;;;;;;;623.15;61.50;;;9.50;99.90;;;8.36;100.00;101947.03;5045930;28;20116;-87
2022/10/27 06:20:35;;;;;;;67.00;28.45;;;9.60;99.90;;;8.50;100.00;101949.44;5029611;28;20022;-87
2022/10/27 06:23:01;;;;;;;401.33;58.22;;;9.60;99.90;;;8.57;100.00;101948.41;5035256;28;20022;-87
2022/10/27 06:25:27;;;;;;;432.17;51.33;;;;;;;8.73;100.00;101963.00;5040973;28;20102;-87
2022/10/27 06:28:04;;;;;;;352.52;47.92;;;;;;;8.81;100.00;101966.34;5029524;28;20034;-87
2022/10/27 06:30:35;;;;;;;592.70;53.55;;;;;;;8.93;100.00;101977.50;5033164;28;20033;-87
2022/10/27 06:33:04;;;;;;;541.47;54.25;;;;;;;9.06;100.00;101978.97;5042536;28;20025;-87
2022/10/27 06:35:31;;;;;;;918.67;72.18;;;;;;;9.16;100.00;101974.41;5044494;28;20037;-87
2022/10/27 06:37:56;;;;;;;682.58;46.53;;;10.30;99.90;;;9.33;100.00;101977.56;5036454;28;20092;-88
2022/10/27 06:40:32;;;;;;;;;;;;;;;;;;;;;
2022/10/27 06:42:58;;;;;;;;;;;10.50;99.90;;;9.63;100.00;101993.53;5031044;28;20036;-87
2022/10/27 06:45:24;;;;;;;576.30;52.67;;;;;;;9.78;100.00;101989.69;5039728;28;19988;-87
2022/10/27 06:48:00;;;;;;;631.92;58.08;;;10.70;99.90;;;10.07;100.00;101981.97;5044400;22;20123;-87
2022/10/27 06:50:29;;;;;;;646.75;60.45;;;10.80;99.90;;;10.38;100.00;101978.59;5005277;28;20038;-86
2022/10/27 06:53:04;;;;;;;673.88;67.53;;;11.00;99.90;;;10.67;100.00;101985.75;5014915;28;20030;-87
2022/10/27 06:55:32;;;;;;;519.85;55.55;;;11.10;99.90;;;10.79;100.00;101983.69;5003154;28;20076;-88
2022/10/27 06:58:07;;;;;;;537.97;42.88;;;;;;;10.91;100.00;101985.97;5023952;28;20111;-87
2022/10/27 07:00:33;;;;;;;84.70;31.45;;;11.40;99.90;;;10.90;100.00;101992.16;5021096;28;20036;-87
2022/10/27 07:03:01;;;;;;;429.13;54.22;;;11.60;99.90;;;10.93;100.00;102001.72;4996811;28;20105;-87
2022/10/27 07:05:35;;;;;;;150.38;31.73;;;11.60;99.90;;;10.86;100.00;101995.75;5004644;28;20455;-87
2022/10/27 07:08:04;;;;;;;313.98;39.58;;;11.70;99.90;;;11.53;100.00;102003.50;5012473;28;20450;-87
2022/10/27 07:10:36;;;;;;;283.13;37.58;;;;;;;11.93;100.00;102015.50;5009836;28;20029;-88
2022/10/27 07:13:04;;;;;;;109.82;20.42;;;12.10;99.90;;;12.52;100.00;102017.09;5005840;28;20034;-87
2022/10/27 07:15:32;;;;;;;41.10;17.92;;;12.40;99.90;;;12.54;100.00;102019.69;5020970;28;20026;-87
2022/10/27 07:18:12;;;;;;;31.80;16.08;;;;;;;12.07;100.00;102012.41;5012947;28;20091;-87
2022/10/27 07:20:39;;;;;;;47.50;18.63;;;;;;;11.77;100.00;102012.47;5006958;28;20021;-87
2022/10/27 07:23:28;;;;;;;33.63;17.10;;;12.40;99.90;;;11.72;100.00;102019.63;5004905;28;20411;-87
2022/10/27 07:25:54;;;;;;;35.78;18.10;;;;;;;12.86;100.00;102032.63;5002604;28;20059;-87
2022/10/27 07:28:34;;;;;;;25.98;14.88;;;;;;;13.33;99.14;102035.38;5021575;28;20032;-87
2022/10/27 07:31:02;;;;;;;32.58;15.88;;;13.60;99.90;;;14.76;94.36;102037.59;5018910;28;20055;-87
2022/10/27 07:33:37;;;;;;;22.70;12.38;;;14.30;99.90;;;15.78;88.58;102036.53;5021935;28;20029;-87
2022/10/27 07:36:03;;;;;;;26.67;12.02;;;15.10;99.90;;;16.47;83.98;102042.06;5027794;28;20475;-88
2022/10/27 07:38:29;;;;;;;22.27;12.25;;;15.80;99.90;;;16.72;81.41;102044.34;5016159;28;20122;-88
2022/10/27 07:41:05;;;;;;;32.55;14.13;;;16.10;99.90;;;16.07;82.72;102042.25;5024325;28;20076;-88
2022/10/27 07:43:31;;;;;;;27.90;14.05;;;;;;;15.48;85.29;102043.25;5008688;28;20545;-87
2022/10/27 07:45:57;;;;;;;31.30;17.40;;;;;;;15.03;87.47;102044.41;5003905;28;20495;-87
2022/10/27 07:48:26;;;;;;;27.58;15.35;;;;;;;14.81;89.91;102048.00;5011655;28;20044;-86
2022/10/27 07:50:55;;;;;;;31.95;17.20;;;;;;;15.10;90.42;102051.19;5010769;28;20096;-88
2022/10/27 07:53:26;;;;;;;22.75;14.25;;;;;;;15.10;90.02;102061.78;5024709;28;20037;-87
2022/10/27 07:56:16;;;;;;;27.65;16.65;;;15.60;99.90;;;14.77;91.41;102047.28;5025330;28;20044;-88
2022/10/27 07:58:54;;;;;;;27.42;17.17;;;;;;;14.66;92.56;102054.81;4993977;28;20037;-88
2022/10/27 08:01:25;;;;;;;31.02;18.30;;;;;;;14.56;93.84;102054.34;5022367;28;20037;-88
2022/10/27 08:04:18;;;;;;;33.20;17.38;;;15.30;99.90;;;14.47;95.19;102056.47;5007009;28;20030;-88
2022/10/27 08:06:44;;;;;;;38.95;20.48;;;;;;;14.37;96.42;102061.31;5013034;28;20068;-88
2022/10/27 08:09:24;;;;;;;28.58;15.52;;;15.30;99.90;;;14.61;96.82;102063.91;5033452;22;20141;-88
2022/10/27 08:12:04;;;;;;;38.53;19.60;;;15.30;99.90;;;14.63;97.04;102068.22;5011678;28;20103;-89
2022/10/27 08:14:44;;;;;;;34.83;19.27;;;15.30;99.90;;;14.45;97.44;102071.59;5022585;28;20017;-89
2022/10/27 08:17:20;;;;;;;;;;;;;;;;;;;;;
2022/10/27 08:19:46;;;;;;;36.42;19.05;;;;;;;14.20;99.16;102066.44;5039284;28;20370;-88
2022/10/27 08:25:23;;;;;;;37.30;19.35;;;15.00;99.90;;;14.18;100.00;102076.25;5009049;28;20116;-88
2022/10/27 08:28:00;;;;;;;;;;;;;;;;;;;;;
2022/10/27 08:30:29;;;;;;;33.45;19.05;;;;;;;14.50;100.00;102073.13;5032573;28;20554;-88
2022/10/27 08:33:53;;;;;;;38.45;19.02;;;15.30;99.90;;;14.83;100.00;102077.09;5034745;28;20037;-88
2022/10/27 08:39:15;;;;;;;29.52;16.67;;;16.00;99.90;;;15.63;97.01;102092.13;5039509;28;20046;-88
2022/10/27 08:42:11;;;;;;;29.75;16.60;;;16.30;99.90;;;15.99;95.33;102095.75;5026366;23;20061;-80
2022/10/27 08:44:49;;;;;;;26.35;15.95;;;16.70;99.90;;;16.24;93.95;102086.59;5012024;28;20084;-79
2022/10/27 08:47:23;;;;;;;29.52;15.85;;;16.90;99.90;;;16.43;93.04;102089.19;5012468;28;20108;-79
2022/10/27 08:50:08;;;;;;;27.17;15.38;;;17.20;99.90;;;16.76;92.04;102094.63;5014162;28;20060;-80
2022/10/27 08:52:35;;;;;;;28.23;14.40;;;17.50;99.90;;;17.11;90.52;102096.44;5016522;28;21246;-80
2022/10/27 08:55:12;;;;;;;23.50;13.88;;;17.80;99.90;;;17.43;88.94;102100.06;5006372;28;20026;-79
2022/10/27 08:57:48;;;;;;;24.42;13.77;;;18.00;99.90;;;17.66;88.09;102103.28;5008271;28;20029;-80
2022/10/27 09:00:14;;;;;;;;;;;18.10;99.90;;;17.81;87.17;102111.28;5011074;28;20025;-80
2022/10/27 09:02:59;;;;;;;24.23;12.43;;;18.30;99.90;;;17.86;86.59;102111.09;5009372;28;19909;-79
2022/10/27 09:06:23;;;;;;;26.10;11.82;;;18.30;99.90;;;17.78;86.33;102106.13;4994497;28;20387;-79
2022/10/27 09:08:49;;;;;;;22.27;11.57;;;18.30;99.90;;;17.67;86.82;102108.53;4992626;28;20046;-80
2022/10/27 09:11:30;;;;;;;23.85;11.75;;;18.20;99.90;;;17.48;87.58;102102.47;4990979;28;20084;-79
2022/10/27 09:14:36;;;;;;;28.25;13.10;;;18.10;99.90;;;17.24;88.87;102102.84;5009482;28;20136;-79
2022/10/27 09:17:41;;;;;;;22.58;11.88;;;17.90;99.90;;;17.05;90.08;102102.09;5011073;28;20557;-80
2022/10/27 09:20:58;;;;;;;29.20;13.30;;;17.80;99.90;;;16.74;92.16;102107.16;4994578;28;20057;-79
2022/10/27 09:23:43;;;;;;;25.38;12.73;;;17.60;99.90;;;16.63;93.48;102104.19;4918881;29;20660;-80
2022/10/27 09:26:13;;;;;;;24.08;13.63;;;17.50;99.90;;;16.51;94.20;102110.94;4950672;29;20031;-80
2022/10/27 09:28:51;;;;;;;27.23;13.38;;;17.40;99.90;;;16.47;95.51;102108.53;4980131;28;20045;-80
2022/10/27 09:31:56;;;;;;;23.00;13.50;;;17.30;99.90;;;16.47;96.44;102109.38;5016089;28;20037;-79
2022/10/27 09:34:45;;;;;;;290.27;58.25;;;17.40;99.90;;;16.57;97.19;102109.78;5003131;28;20129;-80
2022/10/27 09:37:21;;;;;;;25.00;19.00;;;17.50;99.90;;;16.69;97.86;102114.47;4992121;28;20617;-79
2022/10/27 09:39:58;;;;;;;1999.90;999.90;;;17.60;99.90;;;16.79;97.59;102114.91;4992658;28;20041;-80
2022/10/27 09:42:25;;;;;;;1999.90;999.90;;;17.70;99.90;;;16.88;97.09;102113.59;5006881;28;20115;-79
2022/10/27 09:45:21;;;;;;;1999.90;999.90;;;17.70;99.90;;;16.93;96.95;102120.41;4990424;28;20040;-80
2022/10/27 09:48:03;;;;;;;1999.90;999.90;;;17.70;99.90;;;16.95;96.50;102115.88;5006435;28;20088;-80
2022/10/27 09:51:25;;;;;;;27.67;13.50;;;17.80;99.90;;;17.01;96.44;102120.00;5010042;28;20053;-80
2022/10/27 09:54:04;;;;;;;33.08;17.17;;;17.80;99.90;;;17.05;95.94;102115.41;4974122;28;20035;-82
2022/10/27 09:56:43;;;;;;;34.53;25.13;;;17.90;99.90;;;17.08;94.98;102120.53;4990195;28;20071;-81
2022/10/27 09:59:28;;;;;;;33.60;28.70;;;17.90;99.90;;;17.16;95.30;102123.69;5008799;28;20046;-80
2022/10/27 10:01:58;;;;;;;27.45;10.63;;;17.90;99.90;;;17.14;94.88;102125.56;4990662;28;20042;-80
2022/10/27 10:04:46;;;;;;;1999.90;999.90;;;18.00;99.90;;;17.18;94.18;102114.66;4990312;28;20069;-82
2022/10/27 10:07:42;;;;;;;1999.90;999.90;;;18.00;99.90;;;17.25;94.00;102123.19;5006647;28;20635;-82
2022/10/27 10:10:25;;;;;;;1999.90;999.90;;;18.10;99.90;;;17.31;94.15;102130.00;4985932;28;20038;-81
2022/10/27 10:13:17;;;;;;;1999.90;999.90;;;18.10;99.90;;;17.35;93.56;102124.44;4990766;28;20034;-82
2022/10/27 10:15:45;;;;;;;1999.90;999.90;;;18.10;99.90;;;17.36;93.14;102122.63;4970873;28;20413;-82
2022/10/27 10:18:30;;;;;;;1999.90;999.90;;;18.10;99.90;;;17.38;93.94;102120.72;5011285;28;20117;-82
2022/10/27 10:21:07;;;;;;;1999.90;999.90;;;18.10;99.90;;;17.43;93.85;102126.69;5006538;28;20046;-82
2022/10/27 10:23:57;;;;;;;1999.90;999.90;;;18.20;99.90;;;17.45;93.42;102124.81;5003188;28;20034;-82
2022/10/27 10:26:28;;;;;;;1999.90;999.90;;;18.30;99.90;;;17.47;93.50;102122.91;5011078;28;20042;-82
2022/10/27 10:29:07;;;;;;;1999.90;999.90;;;18.20;99.90;;;17.50;93.05;102122.75;5009051;28;20045;-81
2022/10/27 10:32:13;;;;;;;1999.90;999.90;;;18.30;99.90;;;17.50;92.94;102127.22;5008915;28;20105;-81
2022/10/27 10:34:43;;;;;;;1999.90;999.90;;;18.30;99.90;;;17.45;92.88;102124.81;4993318;28;20533;-83
2022/10/27 10:37:49;;;;;;;1999.90;999.90;;;18.20;99.90;;;17.42;93.23;102128.47;4993528;28;20042;-83
2022/10/27 10:40:15;;;;;;;1999.90;999.90;;;18.20;99.90;;;17.35;93.43;102128.91;5012922;28;20042;-82
2022/10/27 10:43:09;;;;;;;1999.90;999.90;;;18.20;99.90;;;17.34;93.06;102117.41;5011399;28;20092;-83
2022/10/27 10:45:38;;;;;;;1999.90;999.90;;;18.10;99.90;;;17.27;93.78;102126.63;4994521;28;20037;-82
2022/10/27 10:48:48;;;;;;;1999.90;999.90;;;18.10;99.90;;;17.21;94.66;102129.59;5002524;28;20049;-82